sensor_id;sensor_type;location;lat;lon;timestamp;pressure;altitude;pressure_sealevel;temperature;humidity
69171;BME280;56279;47.902;12.308;2023-02-04T00:01:13;96145.31;;;4.44;90.96
69171;BME280;56279;47.902;12.308;2023-02-04T00:03:15;96142.69;;;4.44;91.48
69171;BME280;56279;47.902;12.308;2023-02-04T00:05:16;96151.09;;;4.46;90.99
69171;BME280;56279;47.902;12.308;2023-02-04T00:07:18;96155.34;;;4.47;91.20
69171;BME280;56279;47.902;12.308;2023-02-04T00:09:20;96158.94;;;4.46;91.08
69171;BME280;56279;47.902;12.308;2023-02-04T00:11:22;96151.56;;;4.43;91.39
69171;BME280;56279;47.902;12.308;2023-02-04T00:13:23;96147.34;;;4.42;91.33
69171;BME280;56279;47.902;12.308;2023-02-04T00:15:24;96148.38;;;4.41;91.70
69171;BME280;56279;47.902;12.308;2023-02-04T00:17:26;96144.38;;;4.38;91.80
69171;BME280;56279;47.902;12.308;2023-02-04T00:19:27;96138.94;;;4.40;91.72
69171;BME280;56279;47.902;12.308;2023-02-04T00:21:29;96140.97;;;4.38;92.01
69171;BME280;56279;47.902;12.308;2023-02-04T00:23:30;96149.03;;;4.36;92.09
69171;BME280;56279;47.902;12.308;2023-02-04T00:25:31;96159.25;;;4.38;91.92
69171;BME280;56279;47.902;12.308;2023-02-04T00:27:33;96175.72;;;4.38;92.18
69171;BME280;56279;47.902;12.308;2023-02-04T00:29:34;96183.00;;;4.36;92.31
69171;BME280;56279;47.902;12.308;2023-02-04T00:31:36;96181.16;;;4.37;92.31
69171;BME280;56279;47.902;12.308;2023-02-04T00:33:37;96193.22;;;4.38;91.95
69171;BME280;56279;47.902;12.308;2023-02-04T00:35:38;96189.59;;;4.39;91.87
69171;BME280;56279;47.902;12.308;2023-02-04T00:37:40;96200.47;;;4.36;92.46
69171;BME280;56279;47.902;12.308;2023-02-04T00:39:41;96197.88;;;4.36;92.20
69171;BME280;56279;47.902;12.308;2023-02-04T00:41:42;96191.03;;;4.35;92.39
69171;BME280;56279;47.902;12.308;2023-02-04T00:43:44;96208.75;;;4.33;92.22
69171;BME280;56279;47.902;12.308;2023-02-04T00:45:45;96210.78;;;4.31;92.26
69171;BME280;56279;47.902;12.308;2023-02-04T00:47:46;96211.00;;;4.29;92.13
69171;BME280;56279;47.902;12.308;2023-02-04T00:49:47;96226.50;;;4.24;92.30
69171;BME280;56279;47.902;12.308;2023-02-04T00:51:49;96229.31;;;4.22;92.39
69171;BME280;56279;47.902;12.308;2023-02-04T00:53:51;96231.81;;;4.17;92.67
69171;BME280;56279;47.902;12.308;2023-02-04T00:55:54;96234.59;;;4.16;92.69
69171;BME280;56279;47.902;12.308;2023-02-04T00:57:56;96236.41;;;4.15;92.43
69171;BME280;56279;47.902;12.308;2023-02-04T00:59:59;96233.22;;;4.13;92.57
69171;BME280;56279;47.902;12.308;2023-02-04T01:02:00;96244.69;;;4.12;92.92
69171;BME280;56279;47.902;12.308;2023-02-04T01:04:01;96240.47;;;4.11;92.93
69171;BME280;56279;47.902;12.308;2023-02-04T01:06:02;96242.28;;;4.11;92.91
69171;BME280;56279;47.902;12.308;2023-02-04T01:08:04;96241.28;;;4.12;93.04
69171;BME280;56279;47.902;12.308;2023-02-04T01:10:05;96255.56;;;4.09;92.95
69171;BME280;56279;47.902;12.308;2023-02-04T01:12:07;96252.94;;;4.09;93.05
69171;BME280;56279;47.902;12.308;2023-02-04T01:14:08;96248.16;;;4.06;92.99
69171;BME280;56279;47.902;12.308;2023-02-04T01:16:09;96252.94;;;4.09;92.81
69171;BME280;56279;47.902;12.308;2023-02-04T01:18:11;96249.75;;;4.07;93.00
69171;BME280;56279;47.902;12.308;2023-02-04T01:20:13;96249.75;;;4.07;93.12
69171;BME280;56279;47.902;12.308;2023-02-04T01:22:14;96246.13;;;4.08;93.01
69171;BME280;56279;47.902;12.308;2023-02-04T01:24:15;96249.75;;;4.07;92.71
69171;BME280;56279;47.902;12.308;2023-02-04T01:26:35;96262.00;;;4.07;93.12
69171;BME280;56279;47.902;12.308;2023-02-04T01:28:36;96255.97;;;4.06;92.71
69171;BME280;56279;47.902;12.308;2023-02-04T01:30:37;96260.44;;;4.06;92.83
69171;BME280;56279;47.902;12.308;2023-02-04T01:32:39;96255.41;;;4.04;92.85
69171;BME280;56279;47.902;12.308;2023-02-04T01:34:41;96256.44;;;4.03;93.03
69171;BME280;56279;47.902;12.308;2023-02-04T01:36:44;96256.63;;;4.02;93.11
69171;BME280;56279;47.902;12.308;2023-02-04T01:38:45;96264.09;;;3.98;92.98
69171;BME280;56279;47.902;12.308;2023-02-04T01:40:47;96275.53;;;3.97;93.20
69171;BME280;56279;47.902;12.308;2023-02-04T01:42:48;96280.19;;;3.95;93.07
69171;BME280;56279;47.902;12.308;2023-02-04T01:44:50;96263.34;;;3.91;93.42
69171;BME280;56279;47.902;12.308;2023-02-04T01:46:53;96272.63;;;3.87;93.15
69171;BME280;56279;47.902;12.308;2023-02-04T01:48:54;96284.06;;;3.86;93.66
69171;BME280;56279;47.902;12.308;2023-02-04T01:51:01;96290.28;;;3.85;94.18
69171;BME280;56279;47.902;12.308;2023-02-04T01:53:03;96283.66;;;3.83;93.67
69171;BME280;56279;47.902;12.308;2023-02-04T01:55:16;96295.34;;;3.80;93.73
69171;BME280;56279;47.902;12.308;2023-02-04T01:57:18;96298.75;;;3.81;94.15
69171;BME280;56279;47.902;12.308;2023-02-04T01:59:20;96297.16;;;3.80;93.87
69171;BME280;56279;47.902;12.308;2023-02-04T02:01:36;96291.94;;;3.80;93.88
69171;BME280;56279;47.902;12.308;2023-02-04T02:03:38;96291.13;;;3.79;93.66
69171;BME280;56279;47.902;12.308;2023-02-04T02:05:42;96292.75;;;3.80;94.23
69171;BME280;56279;47.902;12.308;2023-02-04T02:07:44;96299.75;;;3.80;93.83
69171;BME280;56279;47.902;12.308;2023-02-04T02:09:45;96292.94;;;3.79;93.88
69171;BME280;56279;47.902;12.308;2023-02-04T02:11:46;96288.94;;;3.76;93.91
69171;BME280;56279;47.902;12.308;2023-02-04T02:13:48;96289.16;;;3.75;93.85
69171;BME280;56279;47.902;12.308;2023-02-04T02:15:49;96289.97;;;3.75;94.27
69171;BME280;56279;47.902;12.308;2023-02-04T02:17:53;96284.72;;;3.75;94.21
69171;BME280;56279;47.902;12.308;2023-02-04T02:19:55;96288.94;;;3.76;93.83
69171;BME280;56279;47.902;12.308;2023-02-04T02:22:02;96274.28;;;3.75;93.86
69171;BME280;56279;47.902;12.308;2023-02-04T02:26:28;96277.31;;;3.72;94.17
69171;BME280;56279;47.902;12.308;2023-02-04T02:28:29;96286.94;;;3.72;94.05
69171;BME280;56279;47.902;12.308;2023-02-04T02:30:30;96289.78;;;3.70;93.68
69171;BME280;56279;47.902;12.308;2023-02-04T02:32:33;96284.56;;;3.70;93.63
69171;BME280;56279;47.902;12.308;2023-02-04T02:34:34;96299.63;;;3.68;94.03
69171;BME280;56279;47.902;12.308;2023-02-04T02:36:37;96303.06;;;3.69;93.82
69171;BME280;56279;47.902;12.308;2023-02-04T02:38:38;96316.88;;;3.69;93.89
69171;BME280;56279;47.902;12.308;2023-02-04T02:40:40;96319.72;;;3.68;93.64
69171;BME280;56279;47.902;12.308;2023-02-04T02:42:42;96345.00;;;3.67;93.60
69171;BME280;56279;47.902;12.308;2023-02-04T02:44:46;96341.81;;;3.65;94.06
69171;BME280;56279;47.902;12.308;2023-02-04T02:46:48;96355.84;;;3.64;94.26
69171;BME280;56279;47.902;12.308;2023-02-04T02:48:49;96341.41;;;3.68;94.26
69171;BME280;56279;47.902;12.308;2023-02-04T02:50:51;96337.16;;;3.67;93.95
69171;BME280;56279;47.902;12.308;2023-02-04T02:52:55;96344.81;;;3.69;94.38
69171;BME280;56279;47.902;12.308;2023-02-04T02:54:56;96346.41;;;3.70;94.58
69171;BME280;56279;47.902;12.308;2023-02-04T02:56:58;96347.78;;;3.72;94.38
69171;BME280;56279;47.902;12.308;2023-02-04T02:59:13;96361.66;;;3.73;93.94
69171;BME280;56279;47.902;12.308;2023-02-04T03:01:15;96356.22;;;3.74;93.91
69171;BME280;56279;47.902;12.308;2023-02-04T03:03:20;96345.75;;;3.74;93.94
69171;BME280;56279;47.902;12.308;2023-02-04T03:05:23;96355.41;;;3.74;94.02
69171;BME280;56279;47.902;12.308;2023-02-04T03:07:25;96357.81;;;3.75;94.28
69171;BME280;56279;47.902;12.308;2023-02-04T03:09:26;96365.66;;;3.75;93.99
69171;BME280;56279;47.902;12.308;2023-02-04T03:11:29;96362.25;;;3.75;93.99
69171;BME280;56279;47.902;12.308;2023-02-04T03:13:32;96365.44;;;3.77;94.20
69171;BME280;56279;47.902;12.308;2023-02-04T03:15:34;96363.81;;;3.76;94.40
69171;BME280;56279;47.902;12.308;2023-02-04T03:17:35;96375.88;;;3.77;94.07
69171;BME280;56279;47.902;12.308;2023-02-04T03:19:38;96387.13;;;3.77;93.63
69171;BME280;56279;47.902;12.308;2023-02-04T03:21:41;96385.31;;;3.78;93.67
69171;BME280;56279;47.902;12.308;2023-02-04T03:23:43;96385.50;;;3.76;93.54
69171;BME280;56279;47.902;12.308;2023-02-04T03:25:44;96385.31;;;3.78;94.09
69171;BME280;56279;47.902;12.308;2023-02-04T03:27:46;96394.75;;;3.79;93.48
69171;BME280;56279;47.902;12.308;2023-02-04T03:29:47;96395.53;;;3.79;93.54
69171;BME280;56279;47.902;12.308;2023-02-04T03:31:49;96400.56;;;3.81;94.09
69171;BME280;56279;47.902;12.308;2023-02-04T03:33:50;96400.56;;;3.81;93.69
69171;BME280;56279;47.902;12.308;2023-02-04T03:35:51;96413.59;;;3.81;93.84
69171;BME280;56279;47.902;12.308;2023-02-04T03:37:53;96410.00;;;3.82;94.02
69171;BME280;56279;47.902;12.308;2023-02-04T03:39:54;96421.44;;;3.81;93.56
69171;BME280;56279;47.902;12.308;2023-02-04T03:41:55;96417.63;;;3.83;94.00
69171;BME280;56279;47.902;12.308;2023-02-04T03:43:56;96409.59;;;3.85;93.84
69171;BME280;56279;47.902;12.308;2023-02-04T03:45:57;96426.84;;;3.86;93.82
69171;BME280;56279;47.902;12.308;2023-02-04T03:47:59;96429.25;;;3.87;93.82
69171;BME280;56279;47.902;12.308;2023-02-04T03:50:00;96435.06;;;3.89;94.12
69171;BME280;56279;47.902;12.308;2023-02-04T03:52:02;96442.47;;;3.92;93.50
69171;BME280;56279;47.902;12.308;2023-02-04T03:54:04;96445.69;;;3.94;93.92
69171;BME280;56279;47.902;12.308;2023-02-04T03:56:05;96442.06;;;3.95;93.63
69171;BME280;56279;47.902;12.308;2023-02-04T03:58:07;96448.50;;;3.93;92.94
69171;BME280;56279;47.902;12.308;2023-02-04T04:00:09;96460.56;;;3.94;92.45
69171;BME280;56279;47.902;12.308;2023-02-04T04:02:13;96468.59;;;3.92;91.82
69171;BME280;56279;47.902;12.308;2023-02-04T04:04:14;96464.56;;;3.90;91.92
69171;BME280;56279;47.902;12.308;2023-02-04T04:06:16;96466.81;;;3.86;91.39
69171;BME280;56279;47.902;12.308;2023-02-04T04:08:18;96475.63;;;3.85;91.33
69171;BME280;56279;47.902;12.308;2023-02-04T04:10:19;96470.84;;;3.82;90.99
69171;BME280;56279;47.902;12.308;2023-02-04T04:12:20;96476.06;;;3.82;90.72
69171;BME280;56279;47.902;12.308;2023-02-04T04:14:21;96484.09;;;3.81;90.99
69171;BME280;56279;47.902;12.308;2023-02-04T04:16:23;96490.34;;;3.80;90.68
69171;BME280;56279;47.902;12.308;2023-02-04T04:18:24;96486.31;;;3.77;90.19
69171;BME280;56279;47.902;12.308;2023-02-04T04:20:25;96489.94;;;3.76;90.03
69171;BME280;56279;47.902;12.308;2023-02-04T04:22:28;96490.94;;;3.75;90.27
69171;BME280;56279;47.902;12.308;2023-02-04T04:24:30;96484.94;;;3.75;89.63
69171;BME280;56279;47.902;12.308;2023-02-04T04:26:31;96484.94;;;3.75;89.49
69171;BME280;56279;47.902;12.308;2023-02-04T04:28:32;96488.75;;;3.72;89.61
69171;BME280;56279;47.902;12.308;2023-02-04T04:30:34;96498.19;;;3.73;89.50
69171;BME280;56279;47.902;12.308;2023-02-04T04:32:35;96489.72;;;3.71;89.25
69171;BME280;56279;47.902;12.308;2023-02-04T04:34:36;96508.22;;;3.70;89.41
69171;BME280;56279;47.902;12.308;2023-02-04T04:36:38;96507.63;;;3.68;88.84
69171;BME280;56279;47.902;12.308;2023-02-04T04:38:39;96508.63;;;3.67;88.75
69171;BME280;56279;47.902;12.308;2023-02-04T04:40:40;96510.25;;;3.68;88.11
69171;BME280;56279;47.902;12.308;2023-02-04T04:42:42;96511.22;;;3.67;88.67
69171;BME280;56279;47.902;12.308;2023-02-04T04:44:43;96518.88;;;3.68;88.06
69171;BME280;56279;47.902;12.308;2023-02-04T04:46:45;96519.88;;;3.67;88.33
69171;BME280;56279;47.902;12.308;2023-02-04T04:48:46;96520.47;;;3.69;88.13
69171;BME280;56279;47.902;12.308;2023-02-04T04:50:48;96524.91;;;3.69;87.67
69171;BME280;56279;47.902;12.308;2023-02-04T04:52:49;96528.28;;;3.69;87.76
69171;BME280;56279;47.902;12.308;2023-02-04T04:54:50;96536.13;;;3.69;87.84
69171;BME280;56279;47.902;12.308;2023-02-04T04:56:51;96538.13;;;3.67;87.49
69171;BME280;56279;47.902;12.308;2023-02-04T04:58:52;96543.34;;;3.67;87.80
69171;BME280;56279;47.902;12.308;2023-02-04T05:00:54;96544.16;;;3.68;87.78
69171;BME280;56279;47.902;12.308;2023-02-04T05:02:55;96551.78;;;3.69;87.24
69171;BME280;56279;47.902;12.308;2023-02-04T05:04:56;96547.38;;;3.70;87.14
69171;BME280;56279;47.902;12.308;2023-02-04T05:06:57;96552.59;;;3.70;86.89
69171;BME280;56279;47.902;12.308;2023-02-04T05:08:59;96559.44;;;3.71;86.89
69171;BME280;56279;47.902;12.308;2023-02-04T05:11:01;96556.59;;;3.72;87.07
69171;BME280;56279;47.902;12.308;2023-02-04T05:13:02;96562.63;;;3.73;87.14
69171;BME280;56279;47.902;12.308;2023-02-04T05:15:04;96577.28;;;3.74;87.28
69171;BME280;56279;47.902;12.308;2023-02-04T05:17:05;96579.88;;;3.74;87.13
69171;BME280;56279;47.902;12.308;2023-02-04T05:19:07;96576.50;;;3.73;86.84
69171;BME280;56279;47.902;12.308;2023-02-04T05:21:08;96581.91;;;3.72;87.19
69171;BME280;56279;47.902;12.308;2023-02-04T05:23:09;96588.94;;;3.71;87.45
69171;BME280;56279;47.902;12.308;2023-02-04T05:25:10;96586.53;;;3.70;86.97
69171;BME280;56279;47.902;12.308;2023-02-04T05:27:11;96589.94;;;3.70;87.08
69171;BME280;56279;47.902;12.308;2023-02-04T05:29:13;96596.75;;;3.71;87.21
69171;BME280;56279;47.902;12.308;2023-02-04T05:31:14;96604.59;;;3.71;87.21
69171;BME280;56279;47.902;12.308;2023-02-04T05:33:15;96602.78;;;3.72;86.96
69171;BME280;56279;47.902;12.308;2023-02-04T05:35:17;96611.44;;;3.72;87.20
69171;BME280;56279;47.902;12.308;2023-02-04T05:37:21;96618.88;;;3.75;86.83
69171;BME280;56279;47.902;12.308;2023-02-04T05:39:22;96616.25;;;3.75;86.47
69171;BME280;56279;47.902;12.308;2023-02-04T05:41:24;96612.84;;;3.75;86.65
69171;BME280;56279;47.902;12.308;2023-02-04T05:43:25;96625.50;;;3.78;86.17
69171;BME280;56279;47.902;12.308;2023-02-04T05:45:26;96623.66;;;3.78;86.45
69171;BME280;56279;47.902;12.308;2023-02-04T05:47:28;96630.50;;;3.79;86.71
69171;BME280;56279;47.902;12.308;2023-02-04T05:49:29;96628.47;;;3.81;86.55
69171;BME280;56279;47.902;12.308;2023-02-04T05:51:31;96634.50;;;3.82;86.50
69171;BME280;56279;47.902;12.308;2023-02-04T05:53:33;96636.31;;;3.81;86.76
69171;BME280;56279;47.902;12.308;2023-02-04T05:55:35;96637.94;;;3.82;86.16
69171;BME280;56279;47.902;12.308;2023-02-04T05:57:39;96646.75;;;3.81;86.35
69171;BME280;56279;47.902;12.308;2023-02-04T05:59:40;96646.16;;;3.79;86.69
69171;BME280;56279;47.902;12.308;2023-02-04T06:01:41;96648.78;;;3.79;86.98
69171;BME280;56279;47.902;12.308;2023-02-04T06:03:43;96637.72;;;3.77;86.58
69171;BME280;56279;47.902;12.308;2023-02-04T06:05:44;96638.72;;;3.76;86.86
69171;BME280;56279;47.902;12.308;2023-02-04T06:07:46;96640.94;;;3.73;87.33
69171;BME280;56279;47.902;12.308;2023-02-04T06:09:47;96634.91;;;3.72;87.42
69171;BME280;56279;47.902;12.308;2023-02-04T06:11:48;96644.75;;;3.70;87.57
69171;BME280;56279;47.902;12.308;2023-02-04T06:13:50;96640.53;;;3.69;87.38
69171;BME280;56279;47.902;12.308;2023-02-04T06:15:51;96639.94;;;3.67;87.82
69171;BME280;56279;47.902;12.308;2023-02-04T06:17:52;96646.19;;;3.66;87.70
69171;BME280;56279;47.902;12.308;2023-02-04T06:19:53;96650.59;;;3.66;88.36
69171;BME280;56279;47.902;12.308;2023-02-04T06:21:55;96649.78;;;3.65;88.58
69171;BME280;56279;47.902;12.308;2023-02-04T06:23:57;96650.59;;;3.66;88.51
69171;BME280;56279;47.902;12.308;2023-02-04T06:25:59;96650.59;;;3.66;88.53
69171;BME280;56279;47.902;12.308;2023-02-04T06:28:00;96654.00;;;3.66;88.56
69171;BME280;56279;47.902;12.308;2023-02-04T06:30:01;96663.44;;;3.67;88.87
69171;BME280;56279;47.902;12.308;2023-02-04T06:32:02;96663.63;;;3.66;88.51
69171;BME280;56279;47.902;12.308;2023-02-04T06:34:04;96661.22;;;3.64;89.10
69171;BME280;56279;47.902;12.308;2023-02-04T06:36:06;96658.41;;;3.66;88.50
69171;BME280;56279;47.902;12.308;2023-02-04T06:38:07;96667.84;;;3.67;89.13
69171;BME280;56279;47.902;12.308;2023-02-04T06:40:09;96669.66;;;3.66;89.11
69171;BME280;56279;47.902;12.308;2023-02-04T06:42:10;96667.25;;;3.65;89.04
69171;BME280;56279;47.902;12.308;2023-02-04T06:44:12;96670.66;;;3.65;88.73
69171;BME280;56279;47.902;12.308;2023-02-04T06:46:14;96672.66;;;3.63;88.70
69171;BME280;56279;47.902;12.308;2023-02-04T06:48:16;96671.06;;;3.62;89.27
69171;BME280;56279;47.902;12.308;2023-02-04T06:50:18;96677.88;;;3.63;88.96
69171;BME280;56279;47.902;12.308;2023-02-04T06:52:19;96675.28;;;3.63;89.03
69171;BME280;56279;47.902;12.308;2023-02-04T06:54:20;96675.50;;;3.62;88.98
69171;BME280;56279;47.902;12.308;2023-02-04T06:56:21;96687.72;;;3.61;89.25
69171;BME280;56279;47.902;12.308;2023-02-04T06:58:23;96689.31;;;3.62;89.26
69171;BME280;56279;47.902;12.308;2023-02-04T07:00:24;96697.16;;;3.62;88.71
69171;BME280;56279;47.902;12.308;2023-02-04T07:02:26;96693.75;;;3.62;88.75
69171;BME280;56279;47.902;12.308;2023-02-04T07:04:27;96694.53;;;3.62;89.31
69171;BME280;56279;47.902;12.308;2023-02-04T07:06:28;96706.59;;;3.63;89.07
69171;BME280;56279;47.902;12.308;2023-02-04T07:08:30;96710.78;;;3.64;88.87
69171;BME280;56279;47.902;12.308;2023-02-04T07:10:38;96712.41;;;3.65;88.44
69171;BME280;56279;47.902;12.308;2023-02-04T07:12:40;96716.66;;;3.66;89.03
69171;BME280;56279;47.902;12.308;2023-02-04T07:14:41;96714.03;;;3.66;88.75
69171;BME280;56279;47.902;12.308;2023-02-04T07:16:42;96719.25;;;3.66;88.84
69171;BME280;56279;47.902;12.308;2023-02-04T07:18:43;96712.03;;;3.68;88.76
69171;BME280;56279;47.902;12.308;2023-02-04T07:20:46;96716.22;;;3.69;88.41
69171;BME280;56279;47.902;12.308;2023-02-04T07:22:49;96724.06;;;3.69;88.46
69171;BME280;56279;47.902;12.308;2023-02-04T07:24:51;96724.88;;;3.70;88.89
69171;BME280;56279;47.902;12.308;2023-02-04T07:26:52;96720.47;;;3.70;88.62
69171;BME280;56279;47.902;12.308;2023-02-04T07:28:53;96732.50;;;3.71;88.47
69171;BME280;56279;47.902;12.308;2023-02-04T07:30:54;96736.13;;;3.70;88.29
69171;BME280;56279;47.902;12.308;2023-02-04T07:32:56;96736.13;;;3.70;88.23
69171;BME280;56279;47.902;12.308;2023-02-04T07:34:58;96736.13;;;3.70;88.26
69171;BME280;56279;47.902;12.308;2023-02-04T07:36:59;96738.34;;;3.73;88.16
69171;BME280;56279;47.902;12.308;2023-02-04T07:39:06;96737.94;;;3.76;88.25
69171;BME280;56279;47.902;12.308;2023-02-04T07:41:07;96736.53;;;3.80;88.00
69171;BME280;56279;47.902;12.308;2023-02-04T07:43:08;96735.31;;;3.83;87.89
69171;BME280;56279;47.902;12.308;2023-02-04T07:45:10;96734.94;;;3.86;87.66
69171;BME280;56279;47.902;12.308;2023-02-04T07:47:14;96735.53;;;3.88;87.43
69171;BME280;56279;47.902;12.308;2023-02-04T07:49:15;96736.94;;;3.90;87.73
69171;BME280;56279;47.902;12.308;2023-02-04T07:51:16;96740.56;;;3.89;87.31
69171;BME280;56279;47.902;12.308;2023-02-04T07:53:18;96747.97;;;3.92;87.35
69171;BME280;56279;47.902;12.308;2023-02-04T07:55:19;96752.22;;;3.93;87.22
69171;BME280;56279;47.902;12.308;2023-02-04T07:57:20;96762.44;;;3.95;87.02
69171;BME280;56279;47.902;12.308;2023-02-04T07:59:21;96760.66;;;3.95;87.12
69171;BME280;56279;47.902;12.308;2023-02-04T08:01:23;96764.06;;;3.96;86.81
69171;BME280;56279;47.902;12.308;2023-02-04T08:03:24;96754.22;;;3.98;86.77
69171;BME280;56279;47.902;12.308;2023-02-04T08:05:25;96763.47;;;4.00;86.96
69171;BME280;56279;47.902;12.308;2023-02-04T08:07:26;96772.72;;;4.03;86.71
69171;BME280;56279;47.902;12.308;2023-02-04T08:09:28;96770.50;;;4.06;86.75
69171;BME280;56279;47.902;12.308;2023-02-04T08:11:29;96760.84;;;4.07;86.49
69171;BME280;56279;47.902;12.308;2023-02-04T08:13:30;96768.09;;;4.05;86.42
69171;BME280;56279;47.902;12.308;2023-02-04T08:15:32;96773.53;;;4.03;86.55
69171;BME280;56279;47.902;12.308;2023-02-04T08:17:33;96773.53;;;4.03;86.63
69171;BME280;56279;47.902;12.308;2023-02-04T08:19:35;96775.13;;;4.04;86.24
69171;BME280;56279;47.902;12.308;2023-02-04T08:21:39;96780.94;;;4.06;86.40
69171;BME280;56279;47.902;12.308;2023-02-04T08:23:40;96792.78;;;4.09;86.46
69171;BME280;56279;47.902;12.308;2023-02-04T08:25:41;96797.84;;;4.10;86.18
69171;BME280;56279;47.902;12.308;2023-02-04T08:27:43;96794.41;;;4.10;86.06
69171;BME280;56279;47.902;12.308;2023-02-04T08:29:44;96789.19;;;4.10;85.99
69171;BME280;56279;47.902;12.308;2023-02-04T08:31:45;96788.97;;;4.11;85.65
69171;BME280;56279;47.902;12.308;2023-02-04T08:33:48;96796.81;;;4.11;85.87
69171;BME280;56279;47.902;12.308;2023-02-04T08:35:49;96797.41;;;4.13;85.70
69171;BME280;56279;47.902;12.308;2023-02-04T08:37:52;96789.78;;;4.18;85.46
69171;BME280;56279;47.902;12.308;2023-02-04T08:39:53;96802.47;;;4.22;85.36
69171;BME280;56279;47.902;12.308;2023-02-04T08:41:54;96792.41;;;4.25;85.15
69171;BME280;56279;47.902;12.308;2023-02-04T08:43:55;96796.25;;;4.29;85.17
69171;BME280;56279;47.902;12.308;2023-02-04T08:45:59;96791.00;;;4.36;84.76
69171;BME280;56279;47.902;12.308;2023-02-04T08:48:01;96792.22;;;4.40;84.51
69171;BME280;56279;47.902;12.308;2023-02-04T08:50:02;96788.38;;;4.42;84.59
69171;BME280;56279;47.902;12.308;2023-02-04T08:52:03;96784.19;;;4.48;84.49
69171;BME280;56279;47.902;12.308;2023-02-04T08:54:06;96792.00;;;4.54;83.89
69171;BME280;56279;47.902;12.308;2023-02-04T08:56:08;96787.56;;;4.61;83.87
69171;BME280;56279;47.902;12.308;2023-02-04T08:58:10;96786.97;;;4.66;83.44
69171;BME280;56279;47.902;12.308;2023-02-04T09:00:12;96787.16;;;4.71;83.05
69171;BME280;56279;47.902;12.308;2023-02-04T09:02:13;96798.81;;;4.75;82.64
69171;BME280;56279;47.902;12.308;2023-02-04T09:04:14;96794.19;;;4.77;82.45
69171;BME280;56279;47.902;12.308;2023-02-04T09:06:17;96811.28;;;4.79;82.46
69171;BME280;56279;47.902;12.308;2023-02-04T09:08:18;96800.00;;;4.85;82.54
69171;BME280;56279;47.902;12.308;2023-02-04T09:10:19;96810.25;;;4.87;81.88
69171;BME280;56279;47.902;12.308;2023-02-04T09:12:21;96820.72;;;4.87;81.58
69171;BME280;56279;47.902;12.308;2023-02-04T09:14:22;96816.09;;;4.89;81.84
69171;BME280;56279;47.902;12.308;2023-02-04T09:16:23;96828.78;;;4.92;81.60
69171;BME280;56279;47.902;12.308;2023-02-04T09:18:24;96823.72;;;4.90;81.20
69171;BME280;56279;47.902;12.308;2023-02-04T09:20:26;96828.94;;;4.90;81.47
69171;BME280;56279;47.902;12.308;2023-02-04T09:22:29;96817.50;;;4.92;81.14
69171;BME280;56279;47.902;12.308;2023-02-04T09:24:30;96816.66;;;4.98;81.20
69171;BME280;56279;47.902;12.308;2023-02-04T09:26:31;96820.88;;;5.05;81.43
69171;BME280;56279;47.902;12.308;2023-02-04T09:28:33;96832.34;;;5.11;80.54
69171;BME280;56279;47.902;12.308;2023-02-04T09:30:34;96828.69;;;5.18;80.80
69171;BME280;56279;47.902;12.308;2023-02-04T09:32:36;96835.72;;;5.31;80.14
69171;BME280;56279;47.902;12.308;2023-02-04T09:34:37;96830.84;;;5.41;79.98
69171;BME280;56279;47.902;12.308;2023-02-04T09:36:38;96845.91;;;5.52;79.50
69171;BME280;56279;47.902;12.308;2023-02-04T09:38:39;96850.91;;;5.60;79.21
69171;BME280;56279;47.902;12.308;2023-02-04T09:40:43;96852.94;;;5.51;77.65
69171;BME280;56279;47.902;12.308;2023-02-04T09:42:51;96858.84;;;5.40;77.56
69171;BME280;56279;47.902;12.308;2023-02-04T09:44:53;96870.53;;;5.38;77.97
69171;BME280;56279;47.902;12.308;2023-02-04T09:46:56;96871.94;;;5.34;77.82
69171;BME280;56279;47.902;12.308;2023-02-04T09:48:58;96875.19;;;5.29;78.13
69171;BME280;56279;47.902;12.308;2023-02-04T09:51:05;96883.22;;;5.28;78.14
69171;BME280;56279;47.902;12.308;2023-02-04T09:53:12;96899.53;;;5.23;77.97
69171;BME280;56279;47.902;12.308;2023-02-04T09:55:16;96906.84;;;5.02;78.54
69171;BME280;56279;47.902;12.308;2023-02-04T09:57:19;96901.00;;;4.73;79.04
69171;BME280;56279;47.902;12.308;2023-02-04T09:59:22;96914.22;;;4.33;80.05
69171;BME280;56279;47.902;12.308;2023-02-04T10:01:25;96910.56;;;4.07;80.68
69171;BME280;56279;47.902;12.308;2023-02-04T10:03:27;96918.97;;;3.96;81.10
69171;BME280;56279;47.902;12.308;2023-02-04T10:05:30;96914.09;;;3.80;81.52
69171;BME280;56279;47.902;12.308;2023-02-04T10:07:32;96916.44;;;3.69;81.83
69171;BME280;56279;47.902;12.308;2023-02-04T10:09:40;96915.22;;;3.71;82.27
69171;BME280;56279;47.902;12.308;2023-02-04T10:11:43;96924.31;;;3.75;82.20
69171;BME280;56279;47.902;12.308;2023-02-04T10:13:47;96932.13;;;3.75;81.85
69171;BME280;56279;47.902;12.308;2023-02-04T10:15:52;96929.69;;;3.74;81.61
69171;BME280;56279;47.902;12.308;2023-02-04T10:17:57;96938.31;;;3.68;81.98
69171;BME280;56279;47.902;12.308;2023-02-04T10:20:01;96934.28;;;3.65;81.41
69171;BME280;56279;47.902;12.308;2023-02-04T10:22:10;96930.47;;;3.68;81.45
69171;BME280;56279;47.902;12.308;2023-02-04T10:24:18;96937.09;;;3.64;81.82
69171;BME280;56279;47.902;12.308;2023-02-04T10:26:21;96931.44;;;3.60;81.85
69171;BME280;56279;47.902;12.308;2023-02-04T10:28:35;96930.03;;;3.58;81.97
69171;BME280;56279;47.902;12.308;2023-02-04T10:30:41;96934.66;;;3.62;81.88
69171;BME280;56279;47.902;12.308;2023-02-04T10:32:44;96934.06;;;3.60;82.02
69171;BME280;56279;47.902;12.308;2023-02-04T10:34:45;96940.88;;;3.55;82.02
69171;BME280;56279;47.902;12.308;2023-02-04T10:36:52;96933.63;;;3.50;82.15
69171;BME280;56279;47.902;12.308;2023-02-04T10:38:59;96939.59;;;3.44;82.10
69171;BME280;56279;47.902;12.308;2023-02-04T10:41:02;96931.19;;;3.48;82.34
69171;BME280;56279;47.902;12.308;2023-02-04T10:43:09;96926.81;;;3.56;82.70
69171;BME280;56279;47.902;12.308;2023-02-04T10:45:24;96929.84;;;3.59;81.88
69171;BME280;56279;47.902;12.308;2023-02-04T10:47:28;96931.88;;;3.64;81.77
69171;BME280;56279;47.902;12.308;2023-02-04T10:49:31;96933.47;;;3.65;81.89